sensor_id;sensor_type;location;lat;lon;timestamp;P1;durP1;ratioP1;P2;durP2;ratioP2
54835;SDS011;43486;43.574;1.476;2023-07-30T00:01:32;1.58;;;1.00;;
54835;SDS011;43486;43.574;1.476;2023-07-30T00:03:58;1.75;;;1.17;;
54835;SDS011;43486;43.574;1.476;2023-07-30T00:06:23;4.97;;;1.27;;
54835;SDS011;43486;43.574;1.476;2023-07-30T00:08:48;3.80;;;1.40;;
54835;SDS011;43486;43.574;1.476;2023-07-30T00:11:14;2.97;;;1.27;;
54835;SDS011;43486;43.574;1.476;2023-07-30T00:13:39;2.17;;;1.30;;
54835;SDS011;43486;43.574;1.476;2023-07-30T00:16:05;3.22;;;1.45;;
54835;SDS011;43486;43.574;1.476;2023-07-30T00:18:30;2.75;;;1.58;;
54835;SDS011;43486;43.574;1.476;2023-07-30T00:20:55;3.38;;;1.80;;
54835;SDS011;43486;43.574;1.476;2023-07-30T00:23:21;4.93;;;1.42;;
54835;SDS011;43486;43.574;1.476;2023-07-30T00:25:46;2.25;;;1.25;;
54835;SDS011;43486;43.574;1.476;2023-07-30T00:28:11;3.58;;;1.75;;
54835;SDS011;43486;43.574;1.476;2023-07-30T00:30:37;2.05;;;1.00;;
54835;SDS011;43486;43.574;1.476;2023-07-30T00:33:02;2.25;;;1.30;;
54835;SDS011;43486;43.574;1.476;2023-07-30T00:35:27;4.05;;;1.63;;
54835;SDS011;43486;43.574;1.476;2023-07-30T00:37:53;3.53;;;1.30;;
54835;SDS011;43486;43.574;1.476;2023-07-30T00:40:18;3.72;;;1.70;;
54835;SDS011;43486;43.574;1.476;2023-07-30T00:42:44;3.85;;;1.52;;
54835;SDS011;43486;43.574;1.476;2023-07-30T00:45:09;2.97;;;1.52;;
54835;SDS011;43486;43.574;1.476;2023-07-30T00:47:36;3.55;;;1.42;;
54835;SDS011;43486;43.574;1.476;2023-07-30T00:50:02;2.78;;;1.10;;
54835;SDS011;43486;43.574;1.476;2023-07-30T00:52:28;4.20;;;1.65;;
54835;SDS011;43486;43.574;1.476;2023-07-30T00:54:54;4.28;;;1.83;;
54835;SDS011;43486;43.574;1.476;2023-07-30T00:57:22;2.45;;;1.23;;
54835;SDS011;43486;43.574;1.476;2023-07-30T00:59:48;2.33;;;1.10;;
54835;SDS011;43486;43.574;1.476;2023-07-30T01:02:14;4.05;;;1.63;;
54835;SDS011;43486;43.574;1.476;2023-07-30T01:04:40;2.40;;;1.42;;
54835;SDS011;43486;43.574;1.476;2023-07-30T01:07:06;4.70;;;1.20;;
54835;SDS011;43486;43.574;1.476;2023-07-30T01:09:32;2.55;;;1.65;;
54835;SDS011;43486;43.574;1.476;2023-07-30T01:11:57;4.05;;;1.63;;
54835;SDS011;43486;43.574;1.476;2023-07-30T01:14:23;3.00;;;1.60;;
54835;SDS011;43486;43.574;1.476;2023-07-30T01:16:51;2.15;;;1.27;;
54835;SDS011;43486;43.574;1.476;2023-07-30T01:19:17;3.75;;;1.17;;
54835;SDS011;43486;43.574;1.476;2023-07-30T01:21:42;2.28;;;1.50;;
54835;SDS011;43486;43.574;1.476;2023-07-30T01:24:07;3.47;;;1.65;;
54835;SDS011;43486;43.574;1.476;2023-07-30T01:26:43;3.38;;;1.30;;
54835;SDS011;43486;43.574;1.476;2023-07-30T01:29:14;2.75;;;1.35;;
54835;SDS011;43486;43.574;1.476;2023-07-30T01:31:44;2.45;;;1.48;;
54835;SDS011;43486;43.574;1.476;2023-07-30T01:34:14;7.28;;;1.55;;
54835;SDS011;43486;43.574;1.476;2023-07-30T01:36:40;4.90;;;2.20;;
54835;SDS011;43486;43.574;1.476;2023-07-30T01:39:05;2.00;;;1.52;;
54835;SDS011;43486;43.574;1.476;2023-07-30T01:41:31;3.38;;;1.60;;
54835;SDS011;43486;43.574;1.476;2023-07-30T01:43:56;1.98;;;1.40;;
54835;SDS011;43486;43.574;1.476;2023-07-30T01:46:22;2.20;;;1.33;;
54835;SDS011;43486;43.574;1.476;2023-07-30T01:48:47;1.70;;;1.05;;
54835;SDS011;43486;43.574;1.476;2023-07-30T01:51:12;2.20;;;1.23;;
54835;SDS011;43486;43.574;1.476;2023-07-30T01:53:38;4.85;;;1.75;;
54835;SDS011;43486;43.574;1.476;2023-07-30T01:56:03;2.65;;;1.40;;
54835;SDS011;43486;43.574;1.476;2023-07-30T01:58:29;1.52;;;1.20;;
54835;SDS011;43486;43.574;1.476;2023-07-30T02:00:54;2.30;;;1.23;;
54835;SDS011;43486;43.574;1.476;2023-07-30T02:03:19;2.25;;;1.15;;
54835;SDS011;43486;43.574;1.476;2023-07-30T02:05:45;2.45;;;1.58;;
54835;SDS011;43486;43.574;1.476;2023-07-30T02:08:11;5.85;;;2.15;;
54835;SDS011;43486;43.574;1.476;2023-07-30T02:10:38;3.08;;;1.20;;
54835;SDS011;43486;43.574;1.476;2023-07-30T02:13:03;5.55;;;1.50;;
54835;SDS011;43486;43.574;1.476;2023-07-30T02:15:29;3.55;;;1.83;;
54835;SDS011;43486;43.574;1.476;2023-07-30T02:17:54;3.80;;;1.40;;
54835;SDS011;43486;43.574;1.476;2023-07-30T02:20:19;3.22;;;1.23;;
54835;SDS011;43486;43.574;1.476;2023-07-30T02:22:45;2.50;;;1.35;;
54835;SDS011;43486;43.574;1.476;2023-07-30T02:25:10;3.08;;;1.50;;
54835;SDS011;43486;43.574;1.476;2023-07-30T02:27:36;2.75;;;1.50;;
54835;SDS011;43486;43.574;1.476;2023-07-30T02:30:01;1.52;;;1.02;;
54835;SDS011;43486;43.574;1.476;2023-07-30T02:32:28;3.75;;;1.75;;
54835;SDS011;43486;43.574;1.476;2023-07-30T02:34:54;2.95;;;1.90;;
54835;SDS011;43486;43.574;1.476;2023-07-30T02:37:19;2.13;;;1.20;;
54835;SDS011;43486;43.574;1.476;2023-07-30T02:39:44;2.38;;;1.45;;
54835;SDS011;43486;43.574;1.476;2023-07-30T02:42:10;2.00;;;1.02;;
54835;SDS011;43486;43.574;1.476;2023-07-30T02:44:35;3.78;;;1.33;;
54835;SDS011;43486;43.574;1.476;2023-07-30T02:47:01;2.03;;;1.38;;
54835;SDS011;43486;43.574;1.476;2023-07-30T02:49:26;3.45;;;1.50;;
54835;SDS011;43486;43.574;1.476;2023-07-30T02:51:51;3.22;;;1.80;;
54835;SDS011;43486;43.574;1.476;2023-07-30T02:54:17;2.45;;;1.60;;
54835;SDS011;43486;43.574;1.476;2023-07-30T02:56:45;2.92;;;1.30;;
54835;SDS011;43486;43.574;1.476;2023-07-30T02:59:10;2.63;;;1.35;;
54835;SDS011;43486;43.574;1.476;2023-07-30T03:01:36;2.40;;;1.10;;
54835;SDS011;43486;43.574;1.476;2023-07-30T03:04:01;3.28;;;1.48;;
54835;SDS011;43486;43.574;1.476;2023-07-30T03:06:27;2.58;;;1.40;;
54835;SDS011;43486;43.574;1.476;2023-07-30T03:08:52;2.45;;;1.23;;
54835;SDS011;43486;43.574;1.476;2023-07-30T03:11:18;1.90;;;1.20;;
54835;SDS011;43486;43.574;1.476;2023-07-30T03:13:43;3.25;;;1.73;;
54835;SDS011;43486;43.574;1.476;2023-07-30T03:16:09;2.40;;;1.20;;
54835;SDS011;43486;43.574;1.476;2023-07-30T03:18:34;1.20;;;0.88;;
54835;SDS011;43486;43.574;1.476;2023-07-30T03:20:59;3.33;;;1.40;;
54835;SDS011;43486;43.574;1.476;2023-07-30T03:23:25;3.38;;;0.88;;
54835;SDS011;43486;43.574;1.476;2023-07-30T03:25:51;1.98;;;1.35;;
54835;SDS011;43486;43.574;1.476;2023-07-30T03:28:16;3.17;;;1.63;;
54835;SDS011;43486;43.574;1.476;2023-07-30T03:30:42;2.85;;;1.40;;
54835;SDS011;43486;43.574;1.476;2023-07-30T03:33:07;2.25;;;1.20;;
54835;SDS011;43486;43.574;1.476;2023-07-30T03:35:32;1.92;;;1.13;;
54835;SDS011;43486;43.574;1.476;2023-07-30T03:37:58;3.78;;;1.25;;
54835;SDS011;43486;43.574;1.476;2023-07-30T03:40:23;2.05;;;1.20;;
54835;SDS011;43486;43.574;1.476;2023-07-30T03:42:49;2.42;;;1.10;;
54835;SDS011;43486;43.574;1.476;2023-07-30T03:45:14;2.00;;;1.15;;
54835;SDS011;43486;43.574;1.476;2023-07-30T03:47:39;2.28;;;1.38;;
54835;SDS011;43486;43.574;1.476;2023-07-30T03:50:05;3.53;;;1.60;;
54835;SDS011;43486;43.574;1.476;2023-07-30T03:52:31;1.52;;;1.13;;
54835;SDS011;43486;43.574;1.476;2023-07-30T03:54:56;4.40;;;1.50;;
54835;SDS011;43486;43.574;1.476;2023-07-30T03:57:21;5.00;;;1.70;;
54835;SDS011;43486;43.574;1.476;2023-07-30T03:59:47;2.83;;;1.08;;
54835;SDS011;43486;43.574;1.476;2023-07-30T04:02:12;2.00;;;1.30;;
54835;SDS011;43486;43.574;1.476;2023-07-30T04:04:40;4.38;;;1.13;;
54835;SDS011;43486;43.574;1.476;2023-07-30T04:07:08;2.80;;;1.10;;
54835;SDS011;43486;43.574;1.476;2023-07-30T04:09:33;1.40;;;0.90;;
54835;SDS011;43486;43.574;1.476;2023-07-30T04:11:59;2.70;;;1.20;;
54835;SDS011;43486;43.574;1.476;2023-07-30T04:14:24;1.55;;;0.95;;
54835;SDS011;43486;43.574;1.476;2023-07-30T04:16:50;3.15;;;1.55;;
54835;SDS011;43486;43.574;1.476;2023-07-30T04:19:15;2.92;;;1.70;;
54835;SDS011;43486;43.574;1.476;2023-07-30T04:21:40;2.83;;;1.35;;
54835;SDS011;43486;43.574;1.476;2023-07-30T04:24:06;3.33;;;1.40;;
54835;SDS011;43486;43.574;1.476;2023-07-30T04:26:31;3.10;;;1.40;;
54835;SDS011;43486;43.574;1.476;2023-07-30T04:28:56;2.65;;;1.08;;
54835;SDS011;43486;43.574;1.476;2023-07-30T04:31:22;1.80;;;1.00;;
54835;SDS011;43486;43.574;1.476;2023-07-30T04:33:47;1.80;;;1.20;;
54835;SDS011;43486;43.574;1.476;2023-07-30T04:36:13;2.47;;;1.33;;
54835;SDS011;43486;43.574;1.476;2023-07-30T04:38:38;2.58;;;1.42;;
54835;SDS011;43486;43.574;1.476;2023-07-30T04:41:03;2.97;;;1.40;;
54835;SDS011;43486;43.574;1.476;2023-07-30T04:43:29;1.77;;;1.33;;
54835;SDS011;43486;43.574;1.476;2023-07-30T04:45:54;1.88;;;1.17;;
54835;SDS011;43486;43.574;1.476;2023-07-30T04:48:20;2.33;;;1.45;;
54835;SDS011;43486;43.574;1.476;2023-07-30T04:50:45;9.63;;;1.52;;
54835;SDS011;43486;43.574;1.476;2023-07-30T04:53:10;2.47;;;1.42;;
54835;SDS011;43486;43.574;1.476;2023-07-30T04:55:36;1.55;;;1.08;;
54835;SDS011;43486;43.574;1.476;2023-07-30T04:58:01;1.52;;;1.15;;
54835;SDS011;43486;43.574;1.476;2023-07-30T05:00:28;2.85;;;1.40;;
54835;SDS011;43486;43.574;1.476;2023-07-30T05:02:53;2.92;;;1.38;;
54835;SDS011;43486;43.574;1.476;2023-07-30T05:05:19;1.73;;;1.00;;
54835;SDS011;43486;43.574;1.476;2023-07-30T05:07:44;4.22;;;1.30;;
54835;SDS011;43486;43.574;1.476;2023-07-30T05:10:09;4.28;;;1.83;;
54835;SDS011;43486;43.574;1.476;2023-07-30T05:12:36;2.63;;;1.75;;
54835;SDS011;43486;43.574;1.476;2023-07-30T05:15:02;2.45;;;1.63;;
54835;SDS011;43486;43.574;1.476;2023-07-30T05:17:28;2.35;;;1.42;;
54835;SDS011;43486;43.574;1.476;2023-07-30T05:19:53;4.88;;;1.30;;
54835;SDS011;43486;43.574;1.476;2023-07-30T05:22:19;1.58;;;1.10;;
54835;SDS011;43486;43.574;1.476;2023-07-30T05:24:44;1.92;;;1.20;;
54835;SDS011;43486;43.574;1.476;2023-07-30T05:27:09;5.13;;;1.23;;
54835;SDS011;43486;43.574;1.476;2023-07-30T05:29:35;2.45;;;1.65;;
54835;SDS011;43486;43.574;1.476;2023-07-30T05:32:00;3.47;;;1.30;;
54835;SDS011;43486;43.574;1.476;2023-07-30T05:34:26;2.92;;;1.30;;
54835;SDS011;43486;43.574;1.476;2023-07-30T05:36:51;4.55;;;1.35;;
54835;SDS011;43486;43.574;1.476;2023-07-30T05:39:17;4.78;;;1.77;;
54835;SDS011;43486;43.574;1.476;2023-07-30T05:41:42;3.03;;;1.38;;
54835;SDS011;43486;43.574;1.476;2023-07-30T05:44:07;2.13;;;1.23;;
54835;SDS011;43486;43.574;1.476;2023-07-30T05:46:33;4.50;;;1.70;;
54835;SDS011;43486;43.574;1.476;2023-07-30T05:48:58;2.75;;;1.52;;
54835;SDS011;43486;43.574;1.476;2023-07-30T05:51:23;6.07;;;1.40;;
54835;SDS011;43486;43.574;1.476;2023-07-30T05:53:49;2.53;;;1.50;;
54835;SDS011;43486;43.574;1.476;2023-07-30T05:56:14;3.65;;;1.25;;
54835;SDS011;43486;43.574;1.476;2023-07-30T05:58:43;2.70;;;1.40;;
54835;SDS011;43486;43.574;1.476;2023-07-30T06:01:08;7.28;;;1.58;;
54835;SDS011;43486;43.574;1.476;2023-07-30T06:03:34;2.70;;;1.35;;
54835;SDS011;43486;43.574;1.476;2023-07-30T06:06:00;2.45;;;1.42;;
54835;SDS011;43486;43.574;1.476;2023-07-30T06:08:26;9.30;;;1.77;;
54835;SDS011;43486;43.574;1.476;2023-07-30T06:10:52;3.45;;;1.33;;
54835;SDS011;43486;43.574;1.476;2023-07-30T06:13:17;2.25;;;1.17;;
54835;SDS011;43486;43.574;1.476;2023-07-30T06:15:45;2.30;;;1.17;;
54835;SDS011;43486;43.574;1.476;2023-07-30T06:18:10;2.78;;;1.35;;
54835;SDS011;43486;43.574;1.476;2023-07-30T06:20:36;2.50;;;1.55;;
54835;SDS011;43486;43.574;1.476;2023-07-30T06:23:01;3.38;;;1.65;;
54835;SDS011;43486;43.574;1.476;2023-07-30T06:25:26;6.43;;;1.55;;
54835;SDS011;43486;43.574;1.476;2023-07-30T06:27:52;4.60;;;1.63;;
54835;SDS011;43486;43.574;1.476;2023-07-30T06:30:17;2.90;;;1.27;;
54835;SDS011;43486;43.574;1.476;2023-07-30T06:32:43;1.10;;;0.90;;
54835;SDS011;43486;43.574;1.476;2023-07-30T06:35:08;2.47;;;1.33;;
54835;SDS011;43486;43.574;1.476;2023-07-30T06:37:33;1.52;;;0.93;;
54835;SDS011;43486;43.574;1.476;2023-07-30T06:39:59;2.80;;;1.52;;
54835;SDS011;43486;43.574;1.476;2023-07-30T06:42:24;1.98;;;1.15;;
54835;SDS011;43486;43.574;1.476;2023-07-30T06:44:50;1.67;;;1.20;;
54835;SDS011;43486;43.574;1.476;2023-07-30T06:47:15;2.92;;;1.38;;
54835;SDS011;43486;43.574;1.476;2023-07-30T06:49:40;5.10;;;1.40;;
54835;SDS011;43486;43.574;1.476;2023-07-30T06:52:06;2.78;;;1.63;;
54835;SDS011;43486;43.574;1.476;2023-07-30T06:54:31;5.28;;;1.30;;
54835;SDS011;43486;43.574;1.476;2023-07-30T06:56:57;1.85;;;1.30;;
54835;SDS011;43486;43.574;1.476;2023-07-30T06:59:22;6.03;;;1.95;;
54835;SDS011;43486;43.574;1.476;2023-07-30T07:01:47;3.05;;;1.50;;
54835;SDS011;43486;43.574;1.476;2023-07-30T07:04:13;2.35;;;1.38;;
54835;SDS011;43486;43.574;1.476;2023-07-30T07:06:38;2.08;;;1.13;;
54835;SDS011;43486;43.574;1.476;2023-07-30T07:09:04;3.17;;;1.67;;
54835;SDS011;43486;43.574;1.476;2023-07-30T07:11:29;2.40;;;1.42;;
54835;SDS011;43486;43.574;1.476;2023-07-30T07:13:55;2.88;;;1.35;;
54835;SDS011;43486;43.574;1.476;2023-07-30T07:16:20;4.35;;;2.35;;
54835;SDS011;43486;43.574;1.476;2023-07-30T07:18:46;1.63;;;1.27;;
54835;SDS011;43486;43.574;1.476;2023-07-30T07:21:11;4.93;;;2.28;;
54835;SDS011;43486;43.574;1.476;2023-07-30T07:23:37;2.33;;;1.42;;
54835;SDS011;43486;43.574;1.476;2023-07-30T07:26:02;4.45;;;1.98;;
54835;SDS011;43486;43.574;1.476;2023-07-30T07:28:27;1.55;;;1.33;;
54835;SDS011;43486;43.574;1.476;2023-07-30T07:30:54;2.28;;;1.30;;
54835;SDS011;43486;43.574;1.476;2023-07-30T07:33:19;1.27;;;0.90;;
54835;SDS011;43486;43.574;1.476;2023-07-30T07:35:45;3.20;;;1.58;;
54835;SDS011;43486;43.574;1.476;2023-07-30T07:38:10;1.67;;;1.00;;
54835;SDS011;43486;43.574;1.476;2023-07-30T07:40:37;2.22;;;1.38;;
54835;SDS011;43486;43.574;1.476;2023-07-30T07:43:05;2.80;;;1.67;;
54835;SDS011;43486;43.574;1.476;2023-07-30T07:45:30;6.32;;;1.88;;
54835;SDS011;43486;43.574;1.476;2023-07-30T07:47:56;2.25;;;1.17;;
54835;SDS011;43486;43.574;1.476;2023-07-30T07:50:21;1.50;;;1.13;;
54835;SDS011;43486;43.574;1.476;2023-07-30T07:52:47;7.05;;;1.70;;
54835;SDS011;43486;43.574;1.476;2023-07-30T07:55:12;1.95;;;1.20;;
54835;SDS011;43486;43.574;1.476;2023-07-30T07:57:37;3.00;;;1.20;;
54835;SDS011;43486;43.574;1.476;2023-07-30T08:00:03;3.70;;;1.48;;
54835;SDS011;43486;43.574;1.476;2023-07-30T08:02:30;2.85;;;1.55;;
54835;SDS011;43486;43.574;1.476;2023-07-30T08:04:55;6.88;;;1.50;;
54835;SDS011;43486;43.574;1.476;2023-07-30T08:07:21;2.60;;;1.67;;
54835;SDS011;43486;43.574;1.476;2023-07-30T08:09:46;2.30;;;1.45;;
54835;SDS011;43486;43.574;1.476;2023-07-30T08:12:12;3.08;;;1.73;;
54835;SDS011;43486;43.574;1.476;2023-07-30T08:14:37;3.60;;;1.60;;
54835;SDS011;43486;43.574;1.476;2023-07-30T08:17:03;4.50;;;1.70;;
54835;SDS011;43486;43.574;1.476;2023-07-30T08:19:29;2.55;;;1.13;;
54835;SDS011;43486;43.574;1.476;2023-07-30T08:21:55;5.63;;;1.88;;
54835;SDS011;43486;43.574;1.476;2023-07-30T08:24:21;1.98;;;1.10;;
54835;SDS011;43486;43.574;1.476;2023-07-30T08:26:47;4.93;;;1.60;;
54835;SDS011;43486;43.574;1.476;2023-07-30T08:29:13;2.53;;;1.77;;
54835;SDS011;43486;43.574;1.476;2023-07-30T08:31:39;4.75;;;1.85;;
54835;SDS011;43486;43.574;1.476;2023-07-30T08:34:04;5.22;;;2.53;;
54835;SDS011;43486;43.574;1.476;2023-07-30T08:36:30;13.13;;;2.55;;
54835;SDS011;43486;43.574;1.476;2023-07-30T08:38:55;6.28;;;1.75;;
54835;SDS011;43486;43.574;1.476;2023-07-30T08:41:20;13.10;;;2.92;;
54835;SDS011;43486;43.574;1.476;2023-07-30T08:43:46;4.88;;;1.83;;
54835;SDS011;43486;43.574;1.476;2023-07-30T08:46:17;7.38;;;2.45;;
54835;SDS011;43486;43.574;1.476;2023-07-30T08:48:42;9.00;;;3.58;;
54835;SDS011;43486;43.574;1.476;2023-07-30T08:51:08;7.15;;;2.25;;
54835;SDS011;43486;43.574;1.476;2023-07-30T08:53:33;14.68;;;3.28;;
54835;SDS011;43486;43.574;1.476;2023-07-30T08:55:59;8.27;;;2.40;;
54835;SDS011;43486;43.574;1.476;2023-07-30T08:58:25;5.65;;;3.15;;
54835;SDS011;43486;43.574;1.476;2023-07-30T09:00:53;10.82;;;2.25;;
54835;SDS011;43486;43.574;1.476;2023-07-30T09:03:20;3.13;;;2.05;;
54835;SDS011;43486;43.574;1.476;2023-07-30T09:05:48;5.25;;;1.83;;
54835;SDS011;43486;43.574;1.476;2023-07-30T09:08:14;5.60;;;1.95;;
54835;SDS011;43486;43.574;1.476;2023-07-30T09:10:39;8.40;;;2.75;;
54835;SDS011;43486;43.574;1.476;2023-07-30T09:13:05;8.98;;;2.45;;
54835;SDS011;43486;43.574;1.476;2023-07-30T09:15:37;7.88;;;2.78;;
54835;SDS011;43486;43.574;1.476;2023-07-30T09:18:06;8.30;;;2.25;;
54835;SDS011;43486;43.574;1.476;2023-07-30T09:20:40;4.65;;;1.90;;
54835;SDS011;43486;43.574;1.476;2023-07-30T09:23:06;8.55;;;2.70;;
54835;SDS011;43486;43.574;1.476;2023-07-30T09:25:33;9.13;;;2.83;;
54835;SDS011;43486;43.574;1.476;2023-07-30T09:27:59;5.53;;;3.33;;
54835;SDS011;43486;43.574;1.476;2023-07-30T09:30:24;4.57;;;1.98;;
54835;SDS011;43486;43.574;1.476;2023-07-30T09:32:54;6.20;;;2.58;;
54835;SDS011;43486;43.574;1.476;2023-07-30T09:35:21;5.05;;;2.33;;
54835;SDS011;43486;43.574;1.476;2023-07-30T09:37:49;8.13;;;2.47;;
54835;SDS011;43486;43.574;1.476;2023-07-30T09:40:15;10.60;;;2.50;;
54835;SDS011;43486;43.574;1.476;2023-07-30T09:42:44;7.65;;;2.10;;
54835;SDS011;43486;43.574;1.476;2023-07-30T09:45:20;6.15;;;2.58;;
54835;SDS011;43486;43.574;1.476;2023-07-30T09:47:47;4.72;;;2.40;;
54835;SDS011;43486;43.574;1.476;2023-07-30T09:50:13;6.05;;;2.38;;
54835;SDS011;43486;43.574;1.476;2023-07-30T09:52:39;6.35;;;2.47;;
54835;SDS011;43486;43.574;1.476;2023-07-30T09:55:06;3.05;;;1.73;;
54835;SDS011;43486;43.574;1.476;2023-07-30T09:57:32;14.80;;;2.47;;
54835;SDS011;43486;43.574;1.476;2023-07-30T09:59:58;5.30;;;2.42;;
54835;SDS011;43486;43.574;1.476;2023-07-30T10:02:23;5.45;;;2.22;;
54835;SDS011;43486;43.574;1.476;2023-07-30T10:04:49;6.30;;;2.60;;
54835;SDS011;43486;43.574;1.476;2023-07-30T10:07:16;8.63;;;2.78;;
54835;SDS011;43486;43.574;1.476;2023-07-30T10:09:45;7.05;;;2.20;;
54835;SDS011;43486;43.574;1.476;2023-07-30T10:12:28;7.65;;;2.67;;
54835;SDS011;43486;43.574;1.476;2023-07-30T10:17:21;8.37;;;2.20;;
54835;SDS011;43486;43.574;1.476;2023-07-30T10:19:46;5.13;;;2.33;;
54835;SDS011;43486;43.574;1.476;2023-07-30T10:27:36;10.57;;;2.15;;
54835;SDS011;43486;43.574;1.476;2023-07-30T10:30:13;8.50;;;2.63;;
54835;SDS011;43486;43.574;1.476;2023-07-30T10:35:05;8.75;;;2.75;;
54835;SDS011;43486;43.574;1.476;2023-07-30T10:37:30;6.43;;;2.30;;
54835;SDS011;43486;43.574;1.476;2023-07-30T10:39:56;6.13;;;2.60;;
54835;SDS011;43486;43.574;1.476;2023-07-30T10:42:21;3.92;;;1.83;;
54835;SDS011;43486;43.574;1.476;2023-07-30T10:44:47;4.97;;;2.13;;
54835;SDS011;43486;43.574;1.476;2023-07-30T10:47:12;5.32;;;3.05;;
54835;SDS011;43486;43.574;1.476;2023-07-30T10:49:40;4.50;;;2.47;;
54835;SDS011;43486;43.574;1.476;2023-07-30T10:52:08;2.97;;;1.45;;
54835;SDS011;43486;43.574;1.476;2023-07-30T10:54:34;6.82;;;2.78;;
54835;SDS011;43486;43.574;1.476;2023-07-30T10:56:59;4.85;;;1.83;;
54835;SDS011;43486;43.574;1.476;2023-07-30T10:59:25;4.40;;;2.03;;
54835;SDS011;43486;43.574;1.476;2023-07-30T11:01:52;4.28;;;2.17;;
54835;SDS011;43486;43.574;1.476;2023-07-30T11:04:18;5.72;;;2.17;;
54835;SDS011;43486;43.574;1.476;2023-07-30T11:06:48;7.68;;;2.92;;
54835;SDS011;43486;43.574;1.476;2023-07-30T11:09:22;5.18;;;2.65;;
54835;SDS011;43486;43.574;1.476;2023-07-30T11:11:51;8.32;;;2.70;;
54835;SDS011;43486;43.574;1.476;2023-07-30T11:14:18;3.60;;;1.73;;
54835;SDS011;43486;43.574;1.476;2023-07-30T11:16:57;12.02;;;3.38;;
54835;SDS011;43486;43.574;1.476;2023-07-30T11:19:23;8.40;;;2.92;;
54835;SDS011;43486;43.574;1.476;2023-07-30T11:21:50;6.95;;;2.55;;
54835;SDS011;43486;43.574;1.476;2023-07-30T11:24:16;8.23;;;2.67;;
54835;SDS011;43486;43.574;1.476;2023-07-30T11:26:42;6.47;;;2.08;;
54835;SDS011;43486;43.574;1.476;2023-07-30T11:29:17;6.15;;;2.05;;
54835;SDS011;43486;43.574;1.476;2023-07-30T11:31:43;3.97;;;2.03;;
54835;SDS011;43486;43.574;1.476;2023-07-30T11:34:09;7.03;;;3.00;;
54835;SDS011;43486;43.574;1.476;2023-07-30T11:36:35;8.68;;;2.58;;
54835;SDS011;43486;43.574;1.476;2023-07-30T11:39:00;7.20;;;1.88;;
54835;SDS011;43486;43.574;1.476;2023-07-30T11:41:26;8.15;;;2.10;;
54835;SDS011;43486;43.574;1.476;2023-07-30T11:43:52;11.07;;;3.05;;
54835;SDS011;43486;43.574;1.476;2023-07-30T11:46:18;5.65;;;1.90;;
54835;SDS011;43486;43.574;1.476;2023-07-30T11:48:47;8.63;;;2.70;;
54835;SDS011;43486;43.574;1.476;2023-07-30T11:51:32;9.00;;;2.80;;
54835;SDS011;43486;43.574;1.476;2023-07-30T11:53:58;10.07;;;2.95;;
54835;SDS011;43486;43.574;1.476;2023-07-30T11:56:26;6.40;;;2.33;;
54835;SDS011;43486;43.574;1.476;2023-07-30T11:59:00;5.93;;;1.95;;
54835;SDS011;43486;43.574;1.476;2023-07-30T12:01:29;14.10;;;2.88;;
54835;SDS011;43486;43.574;1.476;2023-07-30T12:03:55;6.57;;;2.30;;
54835;SDS011;43486;43.574;1.476;2023-07-30T12:06:21;6.80;;;2.22;;
54835;SDS011;43486;43.574;1.476;2023-07-30T12:08:48;9.02;;;2.58;;
54835;SDS011;43486;43.574;1.476;2023-07-30T12:11:14;4.47;;;2.03;;
54835;SDS011;43486;43.574;1.476;2023-07-30T12:13:43;7.78;;;2.15;;
54835;SDS011;43486;43.574;1.476;2023-07-30T12:16:12;10.82;;;1.95;;
54835;SDS011;43486;43.574;1.476;2023-07-30T12:18:39;4.50;;;1.85;;
54835;SDS011;43486;43.574;1.476;2023-07-30T12:21:05;9.70;;;3.05;;
54835;SDS011;43486;43.574;1.476;2023-07-30T12:23:32;6.78;;;2.65;;
54835;SDS011;43486;43.574;1.476;2023-07-30T12:25:58;6.97;;;2.28;;
54835;SDS011;43486;43.574;1.476;2023-07-30T12:28:23;5.50;;;2.47;;
54835;SDS011;43486;43.574;1.476;2023-07-30T12:30:49;5.75;;;3.25;;
54835;SDS011;43486;43.574;1.476;2023-07-30T12:33:14;5.88;;;2.45;;
54835;SDS011;43486;43.574;1.476;2023-07-30T12:35:40;4.28;;;1.77;;
54835;SDS011;43486;43.574;1.476;2023-07-30T12:38:05;7.43;;;2.30;;
54835;SDS011;43486;43.574;1.476;2023-07-30T12:40:30;9.80;;;3.42;;
54835;SDS011;43486;43.574;1.476;2023-07-30T12:42:59;6.07;;;2.03;;
54835;SDS011;43486;43.574;1.476;2023-07-30T12:45:25;5.20;;;2.40;;
54835;SDS011;43486;43.574;1.476;2023-07-30T12:47:51;14.93;;;3.70;;
54835;SDS011;43486;43.574;1.476;2023-07-30T12:50:16;4.80;;;2.42;;
54835;SDS011;43486;43.574;1.476;2023-07-30T12:52:42;4.93;;;2.47;;
54835;SDS011;43486;43.574;1.476;2023-07-30T12:55:07;6.13;;;2.72;;
54835;SDS011;43486;43.574;1.476;2023-07-30T12:57:32;6.22;;;2.60;;
54835;SDS011;43486;43.574;1.476;2023-07-30T12:59:58;7.90;;;2.40;;
54835;SDS011;43486;43.574;1.476;2023-07-30T13:02:23;6.15;;;2.22;;
54835;SDS011;43486;43.574;1.476;2023-07-30T13:04:49;3.55;;;1.92;;
54835;SDS011;43486;43.574;1.476;2023-07-30T13:07:14;5.20;;;2.20;;
54835;SDS011;43486;43.574;1.476;2023-07-30T13:09:40;6.45;;;2.92;;
54835;SDS011;43486;43.574;1.476;2023-07-30T13:12:05;5.03;;;2.33;;
54835;SDS011;43486;43.574;1.476;2023-07-30T13:14:31;5.57;;;2.17;;
54835;SDS011;43486;43.574;1.476;2023-07-30T13:16:56;7.93;;;2.35;;
54835;SDS011;43486;43.574;1.476;2023-07-30T13:19:22;4.25;;;2.28;;
54835;SDS011;43486;43.574;1.476;2023-07-30T13:21:47;3.80;;;2.08;;
54835;SDS011;43486;43.574;1.476;2023-07-30T13:24:13;4.35;;;2.33;;
54835;SDS011;43486;43.574;1.476;2023-07-30T13:26:38;11.18;;;2.38;;
54835;SDS011;43486;43.574;1.476;2023-07-30T13:29:04;5.55;;;2.50;;
54835;SDS011;43486;43.574;1.476;2023-07-30T13:31:29;8.57;;;2.25;;
54835;SDS011;43486;43.574;1.476;2023-07-30T13:33:55;8.30;;;3.20;;
54835;SDS011;43486;43.574;1.476;2023-07-30T13:36:21;5.18;;;2.35;;
54835;SDS011;43486;43.574;1.476;2023-07-30T13:38:46;6.70;;;2.40;;
54835;SDS011;43486;43.574;1.476;2023-07-30T13:41:11;8.32;;;3.25;;
54835;SDS011;43486;43.574;1.476;2023-07-30T13:43:37;5.40;;;2.20;;
54835;SDS011;43486;43.574;1.476;2023-07-30T13:46:03;5.05;;;2.05;;
54835;SDS011;43486;43.574;1.476;2023-07-30T13:48:28;7.72;;;2.92;;
54835;SDS011;43486;43.574;1.476;2023-07-30T13:50:53;4.55;;;2.58;;
54835;SDS011;43486;43.574;1.476;2023-07-30T13:53:19;3.63;;;1.70;;
54835;SDS011;43486;43.574;1.476;2023-07-30T13:55:45;7.07;;;2.42;;
54835;SDS011;43486;43.574;1.476;2023-07-30T13:58:10;7.35;;;3.65;;
54835;SDS011;43486;43.574;1.476;2023-07-30T14:00:36;13.40;;;3.40;;
54835;SDS011;43486;43.574;1.476;2023-07-30T14:03:02;7.65;;;2.88;;
54835;SDS011;43486;43.574;1.476;2023-07-30T14:05:27;9.07;;;2.70;;
54835;SDS011;43486;43.574;1.476;2023-07-30T14:07:56;5.65;;;2.55;;
54835;SDS011;43486;43.574;1.476;2023-07-30T14:10:23;7.18;;;3.28;;
54835;SDS011;43486;43.574;1.476;2023-07-30T14:12:49;10.10;;;3.15;;
54835;SDS011;43486;43.574;1.476;2023-07-30T14:15:14;8.55;;;3.63;;
54835;SDS011;43486;43.574;1.476;2023-07-30T14:17:41;10.00;;;3.78;;
54835;SDS011;43486;43.574;1.476;2023-07-30T14:20:06;5.55;;;2.97;;
54835;SDS011;43486;43.574;1.476;2023-07-30T14:22:33;12.32;;;3.28;;
54835;SDS011;43486;43.574;1.476;2023-07-30T14:24:58;9.32;;;3.80;;
54835;SDS011;43486;43.574;1.476;2023-07-30T14:27:24;7.35;;;3.17;;
54835;SDS011;43486;43.574;1.476;2023-07-30T14:29:50;7.60;;;3.20;;
54835;SDS011;43486;43.574;1.476;2023-07-30T14:32:16;4.85;;;2.33;;
54835;SDS011;43486;43.574;1.476;2023-07-30T14:34:42;9.02;;;3.20;;
54835;SDS011;43486;43.574;1.476;2023-07-30T14:37:08;6.60;;;3.40;;
54835;SDS011;43486;43.574;1.476;2023-07-30T14:39:33;9.07;;;3.15;;
54835;SDS011;43486;43.574;1.476;2023-07-30T14:41:58;6.80;;;2.72;;
54835;SDS011;43486;43.574;1.476;2023-07-30T14:44:24;4.30;;;2.22;;
54835;SDS011;43486;43.574;1.476;2023-07-30T14:46:50;7.38;;;2.30;;
54835;SDS011;43486;43.574;1.476;2023-07-30T14:49:15;4.85;;;2.65;;
54835;SDS011;43486;43.574;1.476;2023-07-30T14:51:40;5.07;;;2.90;;